Time;durP1;ratioP1;P1;durP2;ratioP2;P2;SDS_P1;SDS_P2;PMS_P1;PMS_P2;Temp;Humidity;BMP_temperature;BMP_pressure;BME280_temperature;BME280_humidity;BME280_pressure;Samples;Min_cycle;Max_cycle;Signal;HPM_P1;HPM_P2
2022/05/05 00:00:43;;;;;;;23.85;14.32;;;7.20;99.90;;;;;;5047815;28;20064;-68
2022/05/05 00:03:09;;;;;;;25.95;15.05;;;7.10;99.90;;;;;;5048599;28;20103;-68
2022/05/05 00:05:34;;;;;;;24.73;13.82;;;7.20;99.90;;;;;;5050403;28;20774;-68
2022/05/05 00:08:00;;;;;;;25.33;15.52;;;7.10;99.90;;;;;;5048545;28;20041;-68
2022/05/05 00:15:54;;;;;;;30.40;16.98;;;7.00;99.90;;;;;;5040138;28;20165;-68
2022/05/05 00:18:20;;;;;;;20.92;14.77;;;7.00;99.90;;;;;;5049023;28;20128;-68
2022/05/05 00:20:46;;;;;;;32.60;16.65;;;7.00;99.90;;;;;;5044961;28;20049;-68
2022/05/05 00:23:12;;;;;;;39.17;16.48;;;6.90;99.90;;;;;;5047524;28;20083;-68
2022/05/05 00:25:37;;;;;;;25.50;15.77;;;6.90;99.90;;;;;;5048147;28;20510;-68
2022/05/05 00:28:03;;;;;;;21.75;15.60;;;6.90;99.90;;;;;;5048620;28;20045;-68
2022/05/05 00:30:29;;;;;;;30.85;15.00;;;6.90;99.90;;;;;;5048520;28;20536;-68
2022/05/05 00:32:54;;;;;;;29.88;15.82;;;6.90;99.90;;;;;;5046936;28;20115;-68
2022/05/05 00:35:20;;;;;;;34.78;16.55;;;6.80;99.90;;;;;;5049440;28;20048;-68
2022/05/05 00:37:46;;;;;;;32.50;17.85;;;6.80;99.90;;;;;;5048445;28;20540;-68
2022/05/05 00:40:12;;;;;;;28.38;16.83;;;6.80;99.90;;;;;;5047412;28;20045;-68
2022/05/05 00:42:38;;;;;;;39.65;16.85;;;6.80;99.90;;;;;;5048834;28;20045;-68
2022/05/05 00:45:04;;;;;;;31.63;16.60;;;6.80;99.90;;;;;;5045248;28;20156;-68
2022/05/05 00:47:31;;;;;;;28.98;15.88;;;6.70;99.90;;;;;;5047591;28;20133;-68
2022/05/05 00:49:59;;;;;;;22.95;15.85;;;6.70;99.90;;;;;;5044493;28;20160;-68
2022/05/05 00:52:28;;;;;;;25.10;16.27;;;6.70;99.90;;;;;;5047579;28;20048;-68
2022/05/05 00:54:56;;;;;;;27.00;17.25;;;6.70;99.90;;;;;;5024693;28;20089;-68
2022/05/05 00:57:23;;;;;;;26.42;16.85;;;6.70;99.90;;;;;;5044994;28;20037;-68
2022/05/05 00:59:50;;;;;;;31.27;17.20;;;6.60;99.90;;;;;;5047581;28;20119;-68
2022/05/05 01:02:16;;;;;;;34.92;19.50;;;6.60;99.90;;;;;;5045526;28;20040;-68
2022/05/05 01:04:42;;;;;;;35.13;17.33;;;6.60;99.90;;;;;;5046387;28;20041;-68
2022/05/05 01:07:08;;;;;;;27.10;17.75;;;6.60;99.90;;;;;;5045982;28;20037;-68
2022/05/05 01:09:35;;;;;;;29.92;17.80;;;6.60;99.90;;;;;;5046431;28;20049;-68
2022/05/05 01:12:02;;;;;;;34.50;17.27;;;6.60;99.90;;;;;;5048068;28;20044;-68
2022/05/05 01:14:29;;;;;;;31.02;17.55;;;6.60;99.90;;;;;;5053327;28;20102;-68
2022/05/05 01:16:55;;;;;;;26.17;18.92;;;6.60;99.90;;;;;;5046905;28;20055;-68
2022/05/05 01:19:20;;;;;;;33.15;18.85;;;6.60;99.90;;;;;;5048637;28;20080;-68
2022/05/05 01:21:53;;;;;;;24.58;16.77;;;6.60;99.90;;;;;;5046399;28;20080;-68
2022/05/05 01:28:10;;;;;;;26.65;16.67;;;6.50;99.90;;;;;;5047316;28;20041;-68
2022/05/05 01:29:50;;;;;;;28.58;17.50;;;6.50;99.90;;;;;;5046491;28;20057;-68
2022/05/05 01:32:16;;;;;;;29.73;18.38;;;6.50;99.90;;;;;;5020946;28;20387;-68
2022/05/05 01:34:41;;;;;;;34.97;17.88;;;6.50;99.90;;;;;;5029810;28;20051;-68
2022/05/05 01:37:07;;;;;;;36.50;18.75;;;6.50;99.90;;;;;;5045514;28;20060;-68
2022/05/05 01:39:32;;;;;;;30.50;18.88;;;6.50;99.90;;;;;;5045963;28;20191;-68
2022/05/05 01:41:58;;;;;;;31.80;19.02;;;6.40;99.90;;;;;;5045897;28;20044;-68
2022/05/05 01:44:24;;;;;;;33.70;17.70;;;6.40;99.90;;;;;;5048527;28;20041;-68
2022/05/05 01:46:52;;;;;;;27.52;18.27;;;6.40;99.90;;;;;;5046241;28;20414;-68
2022/05/05 01:49:17;;;;;;;28.88;17.77;;;6.30;99.90;;;;;;5042540;28;20448;-68
2022/05/05 01:51:43;;;;;;;35.05;19.05;;;6.40;99.90;;;;;;5047854;28;20037;-68
2022/05/05 01:54:09;;;;;;;30.55;17.25;;;6.40;99.90;;;;;;5048451;28;20037;-68
2022/05/05 01:56:34;;;;;;;28.90;18.25;;;6.40;99.90;;;;;;5046445;28;20044;-68
2022/05/05 01:59:00;;;;;;;34.78;18.77;;;6.40;99.90;;;;;;5048130;28;20055;-68
2022/05/05 02:01:26;;;;;;;29.92;17.77;;;6.40;99.90;;;;;;5036448;28;20474;-68
2022/05/05 02:03:52;;;;;;;30.23;18.63;;;6.40;99.90;;;;;;5027615;28;20053;-68
2022/05/05 02:06:17;;;;;;;36.33;19.35;;;6.30;99.90;;;;;;5045607;28;20052;-68
2022/05/05 02:08:43;;;;;;;26.35;17.42;;;6.30;99.90;;;;;;5045892;28;20049;-68
2022/05/05 02:11:08;;;;;;;32.42;19.77;;;6.30;99.90;;;;;;5029070;28;20049;-68
2022/05/05 02:13:35;;;;;;;33.80;20.20;;;6.30;99.90;;;;;;5048942;28;20175;-68
2022/05/05 02:16:03;;;;;;;40.65;19.35;;;6.30;99.90;;;;;;5045457;28;20048;-68
2022/05/05 02:18:31;;;;;;;29.33;19.17;;;6.20;99.90;;;;;;5045638;28;20774;-68
2022/05/05 02:20:56;;;;;;;27.87;18.20;;;6.20;99.90;;;;;;5050644;28;20071;-68
2022/05/05 02:23:23;;;;;;;31.50;19.35;;;6.20;99.90;;;;;;5033277;28;20037;-68
2022/05/05 02:25:48;;;;;;;34.70;18.20;;;6.20;99.90;;;;;;5050386;28;20045;-68
2022/05/05 02:28:14;;;;;;;27.48;18.42;;;6.20;99.90;;;;;;5051260;28;20033;-68
2022/05/05 02:30:40;;;;;;;29.25;17.70;;;6.10;99.90;;;;;;5050126;28;20516;-67
2022/05/05 02:33:06;;;;;;;28.27;17.08;;;6.10;99.90;;;;;;5049336;28;20106;-68
2022/05/05 02:35:32;;;;;;;30.23;18.27;;;6.10;99.90;;;;;;5050341;28;20119;-67
2022/05/05 02:40:41;;;;;;;30.27;18.17;;;6.00;99.90;;;;;;5046531;28;20136;-68
2022/05/05 02:43:07;;;;;;;31.23;18.05;;;6.00;99.90;;;;;;5051069;28;20160;-68
2022/05/05 02:45:33;;;;;;;30.02;18.65;;;6.00;99.90;;;;;;5051317;28;20394;-68
2022/05/05 02:47:58;;;;;;;33.33;18.83;;;6.00;99.90;;;;;;5049368;28;20514;-68
2022/05/05 02:50:24;;;;;;;27.02;18.08;;;6.00;99.90;;;;;;5026549;28;20072;-67
2022/05/05 02:52:50;;;;;;;33.40;19.58;;;5.90;99.90;;;;;;5050342;28;20083;-67
2022/05/05 02:55:15;;;;;;;31.42;20.73;;;5.90;99.90;;;;;;5051294;28;20123;-68
2022/05/05 02:57:41;;;;;;;40.20;19.77;;;5.90;99.90;;;;;;5048049;28;20548;-67
2022/05/05 03:00:12;;;;;;;35.17;20.23;;;5.90;99.90;;;;;;5048686;28;20111;-67
2022/05/05 03:02:41;;;;;;;33.60;19.58;;;5.90;99.90;;;;;;5031551;28;20138;-67
2022/05/05 03:05:09;;;;;;;36.53;18.85;;;5.80;99.90;;;;;;5033329;28;20103;-67
2022/05/05 03:07:35;;;;;;;34.13;18.47;;;5.80;99.90;;;;;;5049928;28;20120;-68
2022/05/05 03:10:01;;;;;;;37.20;21.02;;;5.80;99.90;;;;;;5047841;28;20124;-68
2022/05/05 03:12:26;;;;;;;35.65;20.67;;;5.80;99.90;;;;;;5032181;28;20517;-68
2022/05/05 03:14:52;;;;;;;36.15;20.05;;;5.80;99.90;;;;;;5049962;28;20040;-68
2022/05/05 03:17:18;;;;;;;35.53;19.60;;;5.80;99.90;;;;;;5046536;28;20041;-68
2022/05/05 03:19:44;;;;;;;34.80;19.85;;;5.70;99.90;;;;;;5049105;28;20044;-68
2022/05/05 03:22:09;;;;;;;35.25;20.58;;;5.70;99.90;;;;;;5031553;28;20049;-68
2022/05/05 03:24:35;;;;;;;35.67;21.50;;;5.70;99.90;;;;;;5047769;28;20033;-67
2022/05/05 03:27:01;;;;;;;39.88;22.80;;;5.70;99.90;;;;;;5049515;28;20037;-68
2022/05/05 03:29:28;;;;;;;34.03;21.00;;;5.70;99.90;;;;;;5050692;28;20135;-67
2022/05/05 03:31:53;;;;;;;39.08;21.35;;;5.70;99.90;;;;;;5031067;28;20041;-67
2022/05/05 03:34:20;;;;;;;32.33;18.65;;;5.70;99.90;;;;;;5048503;28;20047;-67
2022/05/05 03:36:46;;;;;;;36.10;20.63;;;5.60;99.90;;;;;;5032476;28;20056;-67
2022/05/05 03:39:11;;;;;;;31.08;20.52;;;5.60;99.90;;;;;;5049327;28;20099;-67
2022/05/05 03:41:37;;;;;;;34.65;22.15;;;5.60;99.90;;;;;;5048619;28;20052;-67
2022/05/05 03:44:05;;;;;;;38.17;22.08;;;5.60;99.90;;;;;;5049563;28;20728;-67
2022/05/05 03:46:31;;;;;;;35.42;22.98;;;5.60;99.90;;;;;;5049990;28;20041;-67
2022/05/05 03:48:56;;;;;;;37.75;21.23;;;5.60;99.90;;;;;;5048434;28;20040;-67
2022/05/05 03:51:22;;;;;;;42.97;21.48;;;5.60;99.90;;;;;;5046967;28;20029;-67
2022/05/05 03:53:48;;;;;;;36.85;21.83;;;5.60;99.90;;;;;;5047903;28;20033;-67
2022/05/05 03:56:14;;;;;;;37.75;22.42;;;5.60;99.90;;;;;;5049520;28;20103;-68
2022/05/05 03:58:39;;;;;;;39.15;23.05;;;5.60;99.90;;;;;;5049450;28;20426;-67
2022/05/05 04:01:05;;;;;;;38.78;23.02;;;5.60;99.90;;;;;;5030313;28;20041;-67
2022/05/05 04:03:31;;;;;;;37.10;24.08;;;5.60;99.90;;;;;;5044278;28;20048;-68
2022/05/05 04:05:57;;;;;;;35.65;22.80;;;5.60;99.90;;;;;;5032233;28;20080;-67
2022/05/05 04:08:23;;;;;;;40.33;22.23;;;5.60;99.90;;;;;;5049259;28;20180;-68
2022/05/05 04:10:48;;;;;;;33.42;21.52;;;5.60;99.90;;;;;;5027266;28;20171;-67
2022/05/05 04:13:14;;;;;;;39.45;21.65;;;5.60;99.90;;;;;;5049607;28;20491;-67
2022/05/05 04:15:40;;;;;;;38.50;23.60;;;5.70;99.90;;;;;;5048230;28;20072;-67
2022/05/05 04:18:06;;;;;;;39.78;22.67;;;5.70;99.90;;;;;;5047680;28;20549;-67
2022/05/05 04:20:31;;;;;;;39.30;23.98;;;5.70;99.90;;;;;;5048337;28;20128;-67
2022/05/05 04:22:57;;;;;;;37.88;22.90;;;5.70;99.90;;;;;;5031333;28;20053;-67
2022/05/05 04:25:23;;;;;;;38.67;24.25;;;5.70;99.90;;;;;;5027143;28;20041;-68
2022/05/05 04:27:50;;;;;;;31.40;22.25;;;5.80;99.90;;;;;;5030810;28;20053;-67
2022/05/05 04:30:16;;;;;;;37.13;21.48;;;5.80;99.90;;;;;;5009927;28;20048;-67
2022/05/05 04:32:45;;;;;;;34.35;22.35;;;5.90;99.90;;;;;;5042717;28;20506;-67
2022/05/05 04:35:11;;;;;;;35.35;22.38;;;6.00;99.90;;;;;;5044885;28;20053;-68
2022/05/05 04:37:40;;;;;;;36.72;24.23;;;6.00;99.90;;;;;;5026882;28;20049;-68
2022/05/05 04:40:08;;;;;;;33.90;22.35;;;6.00;99.90;;;;;;5042848;28;20122;-67
2022/05/05 04:42:34;;;;;;;52.25;24.70;;;6.10;99.90;;;;;;5046808;28;20041;-67
2022/05/05 04:44:59;;;;;;;37.92;21.88;;;6.10;99.90;;;;;;5050811;28;20128;-68
2022/05/05 04:47:26;;;;;;;40.58;23.30;;;6.10;99.90;;;;;;5027877;28;20128;-68
2022/05/05 04:49:53;;;;;;;37.25;22.65;;;6.20;99.90;;;;;;5014308;28;20106;-68
2022/05/05 04:52:19;;;;;;;35.53;23.77;;;6.20;99.90;;;;;;5047182;28;20033;-68
2022/05/05 04:54:44;;;;;;;43.40;24.42;;;6.30;99.90;;;;;;5039390;28;20500;-67
2022/05/05 04:57:10;;;;;;;42.05;24.60;;;6.30;99.90;;;;;;5044661;28;20596;-67
2022/05/05 04:59:36;;;;;;;37.67;25.55;;;6.30;99.90;;;;;;5045360;28;20038;-68
2022/05/05 05:02:02;;;;;;;46.50;26.73;;;6.40;99.90;;;;;;5045399;28;20048;-68
2022/05/05 05:04:28;;;;;;;43.50;27.10;;;6.40;99.90;;;;;;5045881;28;20442;-67
2022/05/05 05:06:53;;;;;;;41.80;24.75;;;6.40;99.90;;;;;;5025892;28;20170;-68
2022/05/05 05:09:19;;;;;;;39.80;24.65;;;6.50;99.90;;;;;;5008173;28;20128;-69
2022/05/05 05:11:45;;;;;;;41.40;25.20;;;6.50;99.90;;;;;;5044766;28;20041;-68
2022/05/05 05:14:10;;;;;;;41.95;24.00;;;6.60;99.90;;;;;;5046957;28;20040;-68
2022/05/05 05:16:36;;;;;;;46.78;26.73;;;6.60;99.90;;;;;;5045042;28;20056;-68
2022/05/05 05:19:03;;;;;;;48.92;25.42;;;6.60;99.90;;;;;;5043525;28;20530;-68
2022/05/05 05:21:29;;;;;;;43.65;25.50;;;6.70;99.90;;;;;;5045708;28;20067;-68
2022/05/05 05:23:54;;;;;;;49.38;26.98;;;6.70;99.90;;;;;;5045097;28;20738;-69
2022/05/05 05:26:20;;;;;;;44.15;25.17;;;6.80;99.90;;;;;;5040338;28;20036;-68
2022/05/05 05:28:46;;;;;;;41.13;26.67;;;6.80;99.90;;;;;;5045811;28;20052;-68
2022/05/05 05:31:11;;;;;;;49.88;29.25;;;6.80;99.90;;;;;;5045725;28;20518;-68
2022/05/05 05:33:37;;;;;;;49.25;29.20;;;6.90;99.90;;;;;;5047423;28;20505;-68
2022/05/05 05:36:03;;;;;;;50.47;29.65;;;6.90;99.90;;;;;;5045528;28;20045;-69
2022/05/05 05:38:29;;;;;;;46.80;26.95;;;7.00;99.90;;;;;;5047799;28;20363;-69
2022/05/05 05:40:57;;;;;;;43.92;27.25;;;7.00;99.90;;;;;;5046914;28;20078;-68
2022/05/05 05:43:23;;;;;;;41.35;26.90;;;7.10;99.90;;;;;;5045238;28;20069;-68
2022/05/05 05:45:48;;;;;;;44.72;28.65;;;7.20;99.90;;;;;;5043736;28;20084;-68
2022/05/05 05:48:14;;;;;;;49.38;27.80;;;7.20;99.90;;;;;;5041757;28;20057;-68
2022/05/05 05:50:40;;;;;;;50.53;29.27;;;7.30;99.90;;;;;;5045348;28;20048;-68
2022/05/05 05:53:06;;;;;;;44.22;28.00;;;7.40;99.90;;;;;;5046504;28;20486;-67
2022/05/05 05:55:32;;;;;;;50.45;28.60;;;7.50;99.90;;;;;;5035997;28;20068;-66
2022/05/05 05:57:58;;;;;;;51.47;28.33;;;7.60;99.90;;;;;;5015238;28;20417;-66
2022/05/05 06:00:24;;;;;;;46.20;29.60;;;7.60;99.90;;;;;;5049236;28;20128;-66
2022/05/05 06:05:34;;;;;;;47.33;29.02;;;7.80;99.90;;;;;;5050610;28;20131;-66
2022/05/05 06:08:01;;;;;;;41.25;29.48;;;8.00;99.90;;;;;;5048803;28;20067;-65
2022/05/05 06:10:28;;;;;;;45.50;27.08;;;8.10;99.90;;;;;;5048626;28;20041;-72
2022/05/05 06:12:54;;;;;;;41.80;26.73;;;8.20;99.90;;;;;;5046358;28;20060;-71
2022/05/05 06:15:20;;;;;;;50.85;26.55;;;8.30;99.90;;;;;;5048818;28;20074;-71
2022/05/05 06:17:46;;;;;;;36.50;26.15;;;8.40;99.90;;;;;;5051515;28;20048;-71
2022/05/05 06:20:12;;;;;;;49.35;26.00;;;8.50;99.90;;;;;;5050699;28;20049;-70
2022/05/05 06:22:38;;;;;;;54.22;27.65;;;8.60;99.90;;;;;;5030042;28;20090;-70
2022/05/05 06:25:05;;;;;;;42.55;28.17;;;8.70;99.90;;;;;;5050134;28;20057;-71
2022/05/05 06:27:31;;;;;;;45.40;26.38;;;8.80;99.90;;;;;;5030639;28;20056;-71
2022/05/05 06:29:57;;;;;;;31.98;24.27;;;9.00;99.90;;;;;;5032184;28;20057;-71
2022/05/05 06:32:22;;;;;;;37.83;25.25;;;9.10;99.90;;;;;;5023151;28;20080;-71
2022/05/05 06:34:48;;;;;;;32.67;22.90;;;9.30;99.90;;;;;;5014542;28;20057;-70
2022/05/05 06:37:14;;;;;;;38.95;21.15;;;9.40;99.90;;;;;;5047794;28;20049;-71
2022/05/05 06:39:40;;;;;;;38.90;23.50;;;9.60;99.90;;;;;;5050714;28;20118;-71
2022/05/05 06:42:06;;;;;;;33.08;22.52;;;9.80;99.90;;;;;;5051423;28;20059;-71
2022/05/05 06:44:31;;;;;;;38.97;21.98;;;10.00;99.90;;;;;;5051336;28;20087;-70
2022/05/05 06:46:58;;;;;;;33.10;23.13;;;10.20;99.90;;;;;;5048146;28;20053;-70
2022/05/05 06:49:24;;;;;;;34.53;23.67;;;10.30;99.90;;;;;;5048886;28;20579;-71
2022/05/05 06:51:50;;;;;;;40.55;20.30;;;10.50;99.90;;;;;;5049069;28;20052;-71
2022/05/05 06:54:16;;;;;;;35.80;22.05;;;10.60;99.90;;;;;;5051731;28;20448;-74
2022/05/05 06:56:41;;;;;;;41.38;23.08;;;10.80;99.90;;;;;;5051401;28;20059;-70
2022/05/05 06:59:07;;;;;;;30.48;19.95;;;11.00;99.90;;;;;;5030995;28;20075;-71
2022/05/05 07:01:52;;;;;;;35.28;21.58;;;11.10;99.90;;;;;;5031538;28;20060;-70
2022/05/05 07:07:11;;;;;;;42.50;20.40;;;11.50;99.90;;;;;;5046963;28;20802;-71
2022/05/05 07:12:21;;;;;;;25.73;17.83;;;11.70;99.90;;;;;;5049917;28;20102;-70
2022/05/05 07:14:47;;;;;;;31.33;17.42;;;11.80;99.90;;;;;;5050104;28;20540;-70
2022/05/05 07:17:14;;;;;;;33.42;18.23;;;12.00;99.90;;;;;;5050952;28;20052;-70
2022/05/05 07:19:40;;;;;;;32.60;17.05;;;12.10;99.90;;;;;;5051017;28;20078;-70
2022/05/05 07:22:07;;;;;;;24.23;15.85;;;12.20;99.90;;;;;;5049519;28;20041;-70
2022/05/05 07:24:33;;;;;;;29.92;16.55;;;12.30;99.90;;;;;;5050780;28;20534;-70
2022/05/05 07:26:59;;;;;;;29.02;16.25;;;12.30;99.90;;;;;;5032692;28;20077;-70
2022/05/05 07:29:26;;;;;;;25.60;15.45;;;12.40;99.90;;;;;;5050762;28;20069;-70
2022/05/05 07:31:51;;;;;;;28.55;16.75;;;12.50;99.90;;;;;;5047138;28;20983;-70
2022/05/05 07:34:20;;;;;;;27.67;13.38;;;12.60;99.90;;;;;;5028234;28;20128;-70
2022/05/05 07:36:46;;;;;;;22.33;12.90;;;12.70;99.90;;;;;;5044055;28;20060;-70
2022/05/05 07:39:12;;;;;;;22.67;12.90;;;12.80;99.90;;;;;;5031955;28;20044;-70
2022/05/05 07:41:39;;;;;;;22.92;13.75;;;12.80;99.90;;;;;;5050113;28;20072;-70
2022/05/05 07:44:06;;;;;;;23.67;12.85;;;12.90;99.90;;;;;;5049032;28;20048;-70
2022/05/05 07:46:33;;;;;;;29.48;15.63;;;13.00;99.90;;;;;;5050619;28;20121;-70
2022/05/05 07:49:01;;;;;;;29.98;13.05;;;13.00;99.90;;;;;;5046777;28;20174;-70
2022/05/05 07:51:28;;;;;;;22.40;12.52;;;13.10;99.90;;;;;;5048318;28;20090;-70
2022/05/05 07:56:39;;;;;;;24.48;13.65;;;13.20;99.90;;;;;;5049740;28;20103;-69
2022/05/05 07:59:05;;;;;;;19.17;14.43;;;13.20;99.90;;;;;;5050203;28;20048;-70
2022/05/05 08:01:30;;;;;;;21.10;13.73;;;13.30;99.90;;;;;;5031550;28;20053;-70
2022/05/05 08:03:56;;;;;;;30.33;13.80;;;13.30;99.90;;;;;;5049078;28;20044;-70
2022/05/05 08:06:22;;;;;;;24.95;13.40;;;13.30;99.90;;;;;;5049575;28;20037;-70
2022/05/05 08:08:48;;;;;;;20.30;14.85;;;13.30;99.90;;;;;;5032575;28;20102;-71
2022/05/05 08:11:13;;;;;;;17.63;13.32;;;13.40;99.90;;;;;;5049653;28;20083;-70
2022/05/05 08:13:39;;;;;;;29.80;14.48;;;13.40;99.90;;;;;;5045241;28;20040;-71
2022/05/05 08:16:06;;;;;;;20.48;12.30;;;13.50;99.90;;;;;;5047015;28;20121;-71
2022/05/05 08:18:31;;;;;;;23.17;14.57;;;13.50;99.90;;;;;;5049926;28;20061;-71
2022/05/05 08:20:57;;;;;;;25.67;14.43;;;13.60;99.90;;;;;;5048258;28;20421;-71
2022/05/05 08:23:22;;;;;;;25.70;15.38;;;13.70;99.90;;;;;;5030378;28;20410;-71
2022/05/05 08:28:36;;;;;;;20.27;13.60;;;13.60;99.90;;;;;;5046375;28;20042;-70
2022/05/05 08:31:02;;;;;;;26.70;13.88;;;13.70;99.90;;;;;;5047080;28;20044;-71
2022/05/05 08:33:28;;;;;;;20.25;13.48;;;13.70;99.90;;;;;;5026537;28;20049;-71
2022/05/05 08:35:55;;;;;;;29.60;14.50;;;13.80;99.90;;;;;;5048680;28;20045;-70
2022/05/05 08:38:21;;;;;;;24.20;13.32;;;13.90;99.90;;;;;;5048944;28;20094;-71
2022/05/05 08:40:47;;;;;;;22.90;14.30;;;13.90;99.90;;;;;;5043221;28;20697;-71
2022/05/05 08:43:13;;;;;;;23.58;14.18;;;13.90;99.90;;;;;;5043886;28;20057;-70
2022/05/05 08:45:39;;;;;;;23.30;14.30;;;14.00;99.90;;;;;;5035441;28;20037;-70
2022/05/05 08:48:11;;;;;;;25.98;12.80;;;14.00;99.90;;;;;;5039034;28;20608;-70
2022/05/05 08:50:44;;;;;;;35.95;15.15;;;14.00;99.90;;;;;;5045318;28;20138;-71
2022/05/05 08:53:15;;;;;;;19.70;12.40;;;14.10;99.90;;;;;;5048474;28;20048;-71
2022/05/05 08:55:43;;;;;;;26.55;12.63;;;14.20;99.90;;;;;;5033472;28;20049;-70
2022/05/05 08:58:09;;;;;;;27.70;12.73;;;14.30;99.90;;;;;;5043897;28;20098;-71
2022/05/05 09:00:35;;;;;;;27.08;13.55;;;14.40;99.90;;;;;;5016033;28;20045;-71
2022/05/05 09:03:04;;;;;;;43.83;15.00;;;14.50;99.90;;;;;;5042730;28;20140;-71
2022/05/05 09:05:42;;;;;;;;;;;14.60;99.90;;;;;;5048999;28;20055;-71
2022/05/05 09:08:10;;;;;;;19.10;12.77;;;14.60;99.80;;;;;;5026217;28;19931;-71
2022/05/05 09:10:50;;;;;;;;;;;14.70;99.90;;;;;;5022942;28;20044;-71
2022/05/05 09:13:30;;;;;;;19.27;11.75;;;14.70;96.90;;;;;;5024663;28;20341;-71
2022/05/05 09:15:57;;;;;;;18.90;11.25;;;14.90;99.90;;;;;;5045081;28;20048;-71
2022/05/05 09:18:25;;;;;;;17.80;11.25;;;15.10;99.90;;;;;;5048658;28;20072;-71
2022/05/05 09:20:52;;;;;;;17.42;10.10;;;15.10;97.50;;;;;;5048802;28;20048;-71
2022/05/05 09:23:31;;;;;;;18.17;11.82;;;15.20;95.90;;;;;;5048071;28;20446;-71
2022/05/05 09:25:57;;;;;;;17.33;11.48;;;15.30;93.30;;;;;;5017353;28;20502;-71
2022/05/05 09:28:27;;;;;;;20.90;12.77;;;15.40;95.80;;;;;;5048788;28;20052;-71
2022/05/05 09:30:54;;;;;;;19.38;11.10;;;15.60;94.00;;;;;;5048354;28;20053;-71
2022/05/05 09:33:42;;;;;;;22.55;12.35;;;15.60;94.80;;;;;;5042221;28;20045;-71
2022/05/05 09:36:13;;;;;;;15.25;9.93;;;15.70;88.40;;;;;;5047174;28;20103;-71
2022/05/05 09:38:52;;;;;;;17.85;10.27;;;15.80;92.00;;;;;;5047716;28;20452;-71
2022/05/05 09:41:32;;;;;;;18.65;10.98;;;15.90;88.80;;;;;;5045448;28;20091;-71
2022/05/05 09:44:00;;;;;;;11.95;9.60;;;16.00;91.40;;;;;;5047666;28;20128;-71
2022/05/05 09:46:29;;;;;;;21.02;11.38;;;16.10;90.50;;;;;;5048351;28;20041;-70
2022/05/05 09:49:07;;;;;;;13.68;10.52;;;16.30;90.90;;;;;;5042083;28;20060;-71
2022/05/05 09:57:41;;;;;;;13.85;11.60;;;16.30;81.90;;;;;;5018458;28;20066;-71
2022/05/05 10:00:23;;;;;;;14.90;10.32;;;16.50;86.60;;;;;;5048188;28;20116;-71
2022/05/05 10:05:48;;;;;;;17.00;11.32;;;16.90;89.50;;;;;;5026984;28;20187;-71
2022/05/05 10:08:23;;;;;;;19.23;12.32;;;17.20;83.40;;;;;;5048469;28;20106;-71
2022/05/05 10:10:49;;;;;;;19.98;13.18;;;17.20;78.20;;;;;;5035910;28;20075;-72
2022/05/05 10:13:20;;;;;;;16.65;10.25;;;17.30;78.10;;;;;;5036285;28;20554;-71
2022/05/05 10:15:48;;;;;;;15.45;9.98;;;17.40;78.10;;;;;;5044855;28;20128;-71
2022/05/05 10:18:16;;;;;;;14.75;10.90;;;17.50;75.00;;;;;;5046897;28;20515;-71
2022/05/05 10:20:43;;;;;;;19.58;11.45;;;17.60;74.00;;;;;;5048162;28;20501;-71
2022/05/05 10:23:19;;;;;;;15.95;11.52;;;17.70;73.20;;;;;;5048209;28;20040;-72
2022/05/05 10:25:51;;;;;;;15.02;12.05;;;17.80;72.30;;;;;;5048046;28;20486;-72
2022/05/05 10:28:47;;;;;;;20.45;11.32;;;17.80;70.60;;;;;;5048031;28;20052;-71
2022/05/05 10:31:31;;;;;;;17.08;11.98;;;17.90;69.80;;;;;;5046250;28;20076;-71
2022/05/05 10:34:00;;;;;;;15.90;11.55;;;18.10;68.80;;;;;;5047153;28;20071;-70
2022/05/05 10:36:28;;;;;;;19.33;11.68;;;18.10;69.30;;;;;;5037745;28;20045;-70
2022/05/05 10:38:53;;;;;;;17.73;10.53;;;18.20;68.40;;;;;;5032296;28;20049;-72
2022/05/05 10:41:40;;;;;;;18.48;10.85;;;18.40;68.30;;;;;;5050606;28;20048;-70
2022/05/05 10:44:19;;;;;;;18.05;12.32;;;18.70;67.40;;;;;;5046105;28;20498;-70
2022/05/05 10:47:05;;;;;;;22.92;11.32;;;18.70;65.10;;;;;;5047710;28;20053;-70
2022/05/05 10:49:37;;;;;;;22.43;12.57;;;18.70;66.30;;;;;;5051991;28;20063;-70
2022/05/05 10:52:11;;;;;;;22.88;11.68;;;18.90;65.20;;;;;;5050122;28;20056;-70
2022/05/05 10:54:48;;;;;;;16.83;11.25;;;18.80;63.00;;;;;;5050569;28;20132;-70
2022/05/05 10:57:26;;;;;;;16.27;9.25;;;19.00;62.80;;;;;;5033403;28;20052;-70
2022/05/05 11:00:08;;;;;;;;;;;19.30;65.00;;;;;;5051666;28;20037;-70
2022/05/05 11:02:35;;;;;;;19.05;9.73;;;19.50;60.60;;;;;;5043333;28;19927;-70
2022/05/05 11:05:20;;;;;;;19.65;10.70;;;19.80;64.00;;;;;;5038330;28;20112;-70
2022/05/05 11:07:49;;;;;;;11.95;9.05;;;20.10;61.70;;;;;;5051253;28;20064;-71
2022/05/05 11:10:36;;;;;;;11.88;7.78;;;20.20;62.00;;;;;;5006359;28;20046;-71
2022/05/05 11:13:02;;;;;;;8.98;7.85;;;20.30;57.00;;;;;;5047509;28;20070;-70
2022/05/05 11:21:32;;;;;;;10.30;7.07;;;20.70;58.50;;;;;;5028439;28;20136;-71
2022/05/05 11:23:59;;;;;;;10.43;7.95;;;20.70;56.20;;;;;;5048975;28;20448;-70
2022/05/05 11:26:25;;;;;;;11.27;6.68;;;20.70;57.30;;;;;;5033145;28;20106;-70
2022/05/05 11:28:51;;;;;;;13.63;7.53;;;20.70;57.70;;;;;;5042633;28;20045;-70
2022/05/05 11:31:30;;;;;;;14.13;8.35;;;20.70;55.90;;;;;;5049800;28;20037;-70
2022/05/05 11:33:58;;;;;;;11.43;7.32;;;20.70;55.60;;;;;;5037910;28;20049;-70
2022/05/05 11:36:27;;;;;;;12.90;7.68;;;20.90;57.30;;;;;;5049857;28;20037;-70
2022/05/05 11:38:53;;;;;;;14.35;9.07;;;21.00;56.80;;;;;;5032401;28;20041;-70
2022/05/05 11:41:19;;;;;;;12.82;9.18;;;20.90;56.30;;;;;;5049923;28;20049;-70
2022/05/05 11:46:31;;;;;;;22.45;8.07;;;20.90;55.50;;;;;;5049760;28;20541;-70
2022/05/05 11:48:57;;;;;;;13.82;9.05;;;21.00;56.10;;;;;;5049031;28;20056;-70
2022/05/05 11:51:29;;;;;;;11.02;8.13;;;21.00;55.50;;;;;;5032666;28;20060;-70
2022/05/05 11:54:04;;;;;;;10.77;7.82;;;21.20;56.50;;;;;;5050659;28;20048;-70
2022/05/05 11:56:30;;;;;;;15.27;9.88;;;21.30;55.30;;;;;;5045280;28;20124;-70
2022/05/05 12:02:05;;;;;;;11.75;8.80;;;21.10;54.30;;;;;;5044791;28;20053;-70
2022/05/05 12:04:32;;;;;;;14.30;8.40;;;20.90;54.50;;;;;;5049759;28;20102;-70
2022/05/05 12:06:59;;;;;;;9.23;8.00;;;20.90;55.90;;;;;;5049948;28;20560;-70
2022/05/05 12:09:26;;;;;;;16.20;8.75;;;21.10;55.60;;;;;;5048271;28;20406;-70
2022/05/05 12:11:52;;;;;;;11.60;7.50;;;21.30;55.40;;;;;;5048905;28;20051;-70
2022/05/05 12:14:22;;;;;;;15.32;10.07;;;21.40;54.50;;;;;;5026683;28;20037;-70
2022/05/05 12:16:49;;;;;;;15.48;9.30;;;21.30;54.50;;;;;;5036031;28;20053;-70
2022/05/05 12:19:17;;;;;;;15.18;8.55;;;21.50;54.00;;;;;;5029277;28;20045;-70
2022/05/05 12:21:57;;;;;;;18.10;9.73;;;21.50;54.60;;;;;;5047405;28;20095;-70
2022/05/05 12:24:24;;;;;;;16.20;10.63;;;21.20;53.00;;;;;;5047498;28;20544;-70
2022/05/05 12:27:05;;;;;;;23.52;10.88;;;21.00;54.30;;;;;;5049424;28;20052;-70
2022/05/05 12:29:38;;;;;;;12.98;10.48;;;20.90;53.70;;;;;;5049078;28;20049;-70
2022/05/05 12:32:08;;;;;;;30.02;11.93;;;20.70;54.10;;;;;;5049399;28;20057;-70
2022/05/05 12:34:33;;;;;;;14.68;8.60;;;20.60;54.50;;;;;;5050107;28;20045;-70
2022/05/05 12:37:09;;;;;;;15.73;9.73;;;20.40;54.30;;;;;;5043736;28;20057;-70
2022/05/05 12:39:51;;;;;;;14.25;8.73;;;20.20;54.90;;;;;;5040361;28;20153;-70
2022/05/05 12:42:17;;;;;;;11.60;8.40;;;20.20;54.20;;;;;;5031820;28;20686;-70
2022/05/05 12:44:44;;;;;;;10.00;7.15;;;20.20;54.60;;;;;;5040666;28;20048;-72
2022/05/05 12:47:10;;;;;;;8.88;7.93;;;20.30;55.20;;;;;;5040929;28;20429;-72
2022/05/05 12:49:44;;;;;;;17.42;8.85;;;20.50;55.30;;;;;;5029334;28;20052;-72
2022/05/05 12:59:36;;;;;;;12.45;9.48;;;20.70;54.40;;;;;;5048284;28;20498;-71
2022/05/05 13:00:23;;;;;;;12.63;9.07;;;20.90;52.60;;;;;;5031228;28;20049;-71
2022/05/05 13:02:49;;;;;;;10.70;8.05;;;20.90;52.90;;;;;;5047686;28;20098;-72
2022/05/05 13:05:15;;;;;;;7.90;6.40;;;20.90;52.70;;;;;;5046363;28;20455;-71
2022/05/05 13:07:41;;;;;;;10.50;7.88;;;21.00;54.30;;;;;;5047298;28;20158;-71
2022/05/05 13:10:07;;;;;;;20.73;8.90;;;21.20;53.10;;;;;;5046159;28;20059;-72
2022/05/05 13:12:34;;;;;;;14.00;8.45;;;21.30;54.20;;;;;;5044437;28;20047;-74
2022/05/05 13:14:59;;;;;;;12.07;8.35;;;21.30;53.30;;;;;;5048791;28;20044;-73
2022/05/05 13:17:25;;;;;;;11.77;7.15;;;21.40;52.70;;;;;;5035261;28;20045;-74
2022/05/05 13:19:51;;;;;;;15.43;8.18;;;21.30;52.40;;;;;;5047428;28;20045;-74
2022/05/05 13:22:16;;;;;;;11.13;8.00;;;21.20;52.90;;;;;;5048889;28;20048;-74
2022/05/05 13:24:42;;;;;;;7.47;6.53;;;21.30;53.50;;;;;;5048308;28;20537;-73
2022/05/05 13:27:07;;;;;;;7.32;6.63;;;21.30;52.90;;;;;;5047029;28;20048;-74
2022/05/05 13:29:33;;;;;;;7.88;5.95;;;21.40;53.70;;;;;;5048054;28;20485;-73